Time;durP1;ratioP1;P1;durP2;ratioP2;P2;SDS_P1;SDS_P2;PMS_P1;PMS_P2;Temp;Humidity;BMP_temperature;BMP_pressure;BME280_temperature;BME280_humidity;BME280_pressure;Samples;Min_cycle;Max_cycle;Signal;HPM_P1;HPM_P2
2023/05/18 01:16:44;;;;;;;12.30;5.80;;;;;;;7.63;100.00;99162.27;105146;1270;107675;-70
2023/05/18 01:19:36;;;;;;;9.00;5.00;;;;;;;7.60;100.00;99166.65;105140;1259;98007;-69
2023/05/18 01:22:28;;;;;;;16.60;7.80;;;;;;;7.57;100.00;99169.48;104921;1264;98389;-69
2023/05/18 01:25:05;;;;;;;18.40;8.20;;;;;;;7.58;100.00;99169.88;105156;1257;112290;-69
2023/05/18 01:27:36;;;;;;;15.10;7.30;;;;;;;7.60;100.00;99168.50;104990;1261;99294;-70
2023/05/18 01:30:07;;;;;;;9.60;5.90;;;;;;;7.61;100.00;99165.11;105194;1269;108980;-70
2023/05/18 01:32:39;;;;;;;;;;;;;;;7.58;100.00;99169.66;104899;1264;97971;-69
2023/05/18 01:35:07;;;;;;;15.20;7.00;;;;;;;7.55;100.00;99171.30;105209;1268;98269;-69
2023/05/18 01:37:34;;;;;;;12.60;7.00;;;;;;;7.57;100.00;99174.84;105010;1260;111460;-69
2023/05/18 01:40:04;;;;;;;12.60;7.20;;;;;;;7.58;100.00;99175.55;105101;1258;97996;-69
2023/05/18 01:42:36;;;;;;;11.60;7.40;;;;;;;7.59;100.00;99175.54;104958;1262;107095;-69
2023/05/18 01:45:13;;;;;;;11.60;7.10;;;;;;;7.58;100.00;99173.97;104949;1258;98087;-69
2023/05/18 01:47:44;;;;;;;12.00;6.90;;;;;;;7.56;100.00;99182.21;104932;1261;98338;-69
2023/05/18 01:50:17;;;;;;;;;;;;;;;7.57;100.00;99180.68;104672;1263;111258;-69
2023/05/18 01:52:52;;;;;;;10.50;6.30;;;;;;;7.57;100.00;99184.72;104880;1264;98777;-70
2023/05/18 01:55:20;;;;;;;17.00;7.00;;;;;;;7.59;100.00;99184.05;105060;1257;108668;-71
2023/05/18 01:57:51;;;;;;;15.20;6.20;;;;;;;7.58;100.00;99187.48;105226;1258;99002;-68
2023/05/18 02:00:21;;;;;;;29.10;13.40;;;;;;;7.58;100.00;99187.55;105191;1258;97950;-69
2023/05/18 02:02:48;;;;;;;25.10;12.70;;;;;;;7.57;100.00;99190.93;105219;1257;112923;-69
2023/05/18 02:05:16;;;;;;;15.80;8.90;;;;;;;7.56;100.00;99192.70;105092;1261;99231;-69
2023/05/18 02:07:46;;;;;;;18.30;8.90;;;;;;;7.53;100.00;99194.56;105215;1262;108774;-68
2023/05/18 02:10:13;;;;;;;14.90;7.40;;;;;;;7.55;100.00;99194.50;104965;1259;98166;-69
2023/05/18 02:12:40;;;;;;;11.70;5.80;;;;;;;7.51;100.00;99195.48;105220;1256;97938;-68
2023/05/18 02:15:08;;;;;;;12.50;6.50;;;;;;;7.49;100.00;99192.88;104943;1261;111993;-68
2023/05/18 02:17:36;;;;;;;9.60;5.80;;;;;;;7.49;100.00;99190.59;105009;1276;98090;-66
2023/05/18 02:20:06;;;;;;;10.10;4.80;;;;;;;7.50;100.00;99189.38;104862;1270;107103;-68
2023/05/18 02:22:34;;;;;;;9.90;5.50;;;;;;;7.48;100.00;99191.36;105128;1258;97997;-68
2023/05/18 02:25:02;;;;;;;11.60;4.50;;;;;;;7.48;100.00;99196.91;104884;1254;98317;-68
2023/05/18 02:27:30;;;;;;;12.40;5.50;;;;;;;7.49;100.00;99198.77;105141;1257;112010;-67
2023/05/18 02:29:58;;;;;;;11.10;5.40;;;;;;;7.50;100.00;99200.45;105063;1260;99243;-69
2023/05/18 02:32:26;;;;;;;11.40;5.60;;;;;;;7.52;100.00;99200.02;104837;1272;108312;-68
2023/05/18 02:34:54;;;;;;;19.00;8.60;;;;;;;7.53;100.00;99203.16;104841;1269;99160;-68
2023/05/18 02:37:21;;;;;;;17.90;7.80;;;;;;;7.54;100.00;99201.59;104895;1255;99385;-68
2023/05/18 02:39:49;;;;;;;14.20;6.10;;;;;;;7.51;100.00;99205.36;105008;1253;112256;-68
2023/05/18 02:42:16;;;;;;;12.40;6.70;;;;;;;7.50;100.00;99207.39;105167;1258;99499;-68
2023/05/18 02:44:44;;;;;;;14.90;5.90;;;;;;;7.47;100.00;99207.84;105026;1258;97911;-68
2023/05/18 02:47:10;;;;;;;9.30;5.10;;;;;;;7.50;100.00;99208.48;104910;1257;98023;-68
2023/05/18 02:49:38;;;;;;;16.20;5.30;;;;;;;7.53;100.00;99211.58;105004;1258;98401;-69
2023/05/18 02:52:05;;;;;;;14.00;6.80;;;;;;;7.51;100.00;99214.14;105102;1253;97930;-68
2023/05/18 02:54:33;;;;;;;9.10;4.10;;;;;;;7.50;100.00;99215.02;105049;1257;99314;-70
2023/05/18 02:57:00;;;;;;;9.30;5.30;;;;;;;7.48;100.00;99217.38;105086;1260;97908;-68
2023/05/18 02:59:27;;;;;;;11.90;5.20;;;;;;;7.51;100.00;99216.38;105105;1254;97910;-68
2023/05/18 03:01:54;;;;;;;10.40;5.30;;;;;;;7.55;100.00;99218.66;105040;1260;98482;-68
2023/05/18 03:04:24;;;;;;;12.50;5.30;;;;;;;7.56;100.00;99221.00;105076;1258;98563;-69
2023/05/18 03:06:52;;;;;;;12.10;5.40;;;;;;;7.58;99.94;99219.84;105138;1254;98267;-69
2023/05/18 03:09:19;;;;;;;10.70;5.20;;;;;;;7.54;99.69;99220.67;105141;1257;97870;-70
2023/05/18 03:11:47;;;;;;;8.00;4.20;;;;;;;7.48;99.63;99221.64;105068;1257;98683;-70
2023/05/18 03:14:13;;;;;;;9.50;4.60;;;;;;;7.43;99.83;99222.64;105149;1256;98522;-71
2023/05/18 03:16:41;;;;;;;13.00;5.50;;;;;;;7.40;100.00;99221.99;105018;1257;98413;-69
2023/05/18 03:19:08;;;;;;;16.10;8.30;;;;;;;7.36;100.00;99225.06;105164;1257;97928;-70
2023/05/18 03:21:35;;;;;;;17.30;7.10;;;;;;;7.37;99.99;99233.29;105093;1264;97875;-70
2023/05/18 03:24:03;;;;;;;12.20;4.90;;;;;;;7.36;100.00;99231.33;105142;1258;98557;-70
2023/05/18 03:26:30;;;;;;;11.80;5.50;;;;;;;7.35;100.00;99235.80;105131;1256;98008;-69
2023/05/18 03:28:59;;;;;;;13.00;5.40;;;;;;;7.35;100.00;99235.15;105047;1257;97985;-68
2023/05/18 03:31:27;;;;;;;13.60;4.50;;;;;;;7.34;100.00;99235.86;104939;1267;98337;-68
2023/05/18 03:33:54;;;;;;;16.20;7.00;;;;;;;7.37;100.00;99239.29;105009;1264;108089;-67
2023/05/18 03:36:21;;;;;;;12.40;5.00;;;;;;;7.37;100.00;99238.58;105074;1257;97969;-68
2023/05/18 03:38:48;;;;;;;12.00;4.80;;;;;;;7.36;100.00;99239.69;105040;1253;98795;-66
2023/05/18 03:41:15;;;;;;;9.20;4.00;;;;;;;7.35;100.00;99240.83;104965;1272;97895;-67
2023/05/18 03:43:43;;;;;;;11.20;4.60;;;;;;;7.36;100.00;99243.88;105034;1257;97960;-68
2023/05/18 03:46:10;;;;;;;11.30;4.60;;;;;;;7.36;100.00;99244.26;104946;1270;97962;-67
2023/05/18 03:48:38;;;;;;;8.20;3.60;;;;;;;7.35;100.00;99248.68;105042;1270;97934;-68
2023/05/18 03:51:05;;;;;;;13.90;5.10;;;;;;;7.34;100.00;99248.19;104906;1260;99298;-68
2023/05/18 03:53:32;;;;;;;11.20;4.80;;;;;;;7.34;100.00;99251.02;105062;1255;97995;-68
2023/05/18 03:56:00;;;;;;;10.70;5.30;;;;;;;7.36;100.00;99249.66;105066;1257;97978;-68
2023/05/18 03:58:28;;;;;;;8.20;4.80;;;;;;;7.35;100.00;99252.27;105055;1271;97992;-67
2023/05/18 04:00:55;;;;;;;12.30;6.10;;;;;;;7.33;100.00;99250.33;105086;1253;97895;-68
2023/05/18 04:03:23;;;;;;;11.70;5.60;;;;;;;7.35;100.00;99250.20;105012;1254;97922;-67
2023/05/18 04:05:52;;;;;;;13.60;5.10;;;;;;;7.37;100.00;99249.71;105071;1257;99196;-68
2023/05/18 04:08:19;;;;;;;11.20;4.60;;;;;;;7.36;100.00;99251.67;104852;1263;98746;-65
2023/05/18 04:10:46;;;;;;;13.10;5.00;;;;;;;7.33;100.00;99259.20;105053;1254;97977;-68
2023/05/18 04:13:13;;;;;;;9.70;4.90;;;;;;;7.31;100.00;99256.59;105051;1257;97817;-68
2023/05/18 04:15:40;;;;;;;16.40;6.80;;;;;;;7.30;100.00;99257.03;104897;1270;97972;-67
2023/05/18 04:18:09;;;;;;;17.10;7.90;;;;;;;7.33;100.00;99260.90;104932;1257;99247;-65
2023/05/18 04:20:40;;;;;;;10.90;4.60;;;;;;;7.35;100.00;99261.48;105104;1267;97906;-67
2023/05/18 04:23:08;;;;;;;11.70;4.90;;;;;;;7.29;100.00;99261.18;104999;1267;108427;-67
2023/05/18 04:25:38;;;;;;;22.00;8.50;;;;;;;7.29;100.00;99263.95;105088;1259;97867;-68
2023/05/18 04:28:05;;;;;;;18.00;7.30;;;;;;;7.29;100.00;99270.12;105059;1260;98452;-68
2023/05/18 04:30:34;;;;;;;10.00;5.00;;;;;;;7.34;100.00;99271.63;105095;1268;111956;-68
2023/05/18 04:33:02;;;;;;;13.90;5.90;;;;;;;7.36;100.00;99275.89;104647;1274;97969;-68
2023/05/18 04:35:30;;;;;;;7.00;3.50;;;;;;;7.39;100.00;99274.52;104899;1263;107749;-73
2023/05/18 04:37:58;;;;;;;8.00;3.50;;;;;;;7.41;100.00;99274.88;105067;1271;97975;-68
2023/05/18 04:40:25;;;;;;;8.90;4.00;;;;;;;7.43;100.00;99277.24;105109;1259;98757;-68
2023/05/18 04:42:53;;;;;;;7.10;2.90;;;;;;;7.41;100.00;99278.70;104968;1261;111873;-67
2023/05/18 04:45:20;;;;;;;7.90;4.20;;;;;;;7.39;100.00;99278.66;105099;1271;97953;-67
2023/05/18 04:47:52;;;;;;;9.60;3.70;;;;;;;7.38;100.00;99276.86;105104;1260;99186;-67
2023/05/18 04:50:24;;;;;;;11.00;3.50;;;;;;;7.40;100.00;99278.65;105059;1261;97958;-65
2023/05/18 04:52:51;;;;;;;;;;;;;;;7.42;100.00;99280.73;104702;1262;99298;-66
2023/05/18 04:55:27;;;;;;;10.70;3.60;;;;;;;7.48;100.00;99284.41;104955;1255;111245;-67
2023/05/18 04:57:55;;;;;;;13.00;4.70;;;;;;;7.49;99.99;99287.51;105268;1260;99110;-67
2023/05/18 05:00:24;;;;;;;11.20;4.00;;;;;;;7.53;100.00;99290.55;104923;1260;108180;-69
2023/05/18 05:02:52;;;;;;;9.30;3.60;;;;;;;7.55;100.00;99294.64;104791;1260;99205;-67
2023/05/18 05:05:20;;;;;;;6.40;2.80;;;;;;;7.57;99.99;99290.55;104987;1262;99536;-68
2023/05/18 05:07:52;;;;;;;12.80;4.20;;;;;;;7.56;99.91;99294.86;105149;1276;112318;-68
2023/05/18 05:10:20;;;;;;;17.40;5.10;;;;;;;7.58;99.99;99297.58;104910;1254;98769;-66
2023/05/18 05:12:49;;;;;;;9.30;3.80;;;;;;;7.59;99.97;99298.84;105081;1257;108627;-67
2023/05/18 05:15:18;;;;;;;10.50;4.30;;;;;;;7.57;99.14;99304.08;105138;1257;97924;-67
2023/05/18 05:17:48;;;;;;;10.10;4.70;;;;;;;7.57;99.60;99307.63;105087;1267;98338;-67
2023/05/18 05:20:16;;;;;;;;;;;;;;;7.59;99.79;99307.17;105088;1258;113464;-67
2023/05/18 05:22:43;;;;;;;9.80;4.90;;;;;;;7.60;99.80;99307.02;105094;1258;97948;-67
2023/05/18 05:25:10;;;;;;;13.90;5.30;;;;;;;7.61;99.67;99308.64;105006;1267;97978;-67
2023/05/18 05:27:37;;;;;;;23.70;5.80;;;;;;;7.63;99.70;99305.09;104950;1260;97962;-66
2023/05/18 05:30:06;;;;;;;15.50;5.50;;;;;;;7.64;99.15;99306.90;105091;1273;97912;-67
2023/05/18 05:32:34;;;;;;;30.20;9.80;;;;;;;7.67;99.25;99310.15;104909;1262;110427;-66
2023/05/18 05:35:03;;;;;;;21.40;7.20;;;;;;;7.69;99.14;99316.05;104926;1254;98676;-67
2023/05/18 05:37:30;;;;;;;19.20;6.80;;;;;;;7.70;99.64;99317.57;105101;1268;107948;-67
2023/05/18 05:39:58;;;;;;;17.30;5.60;;;;;;;7.75;99.42;99318.36;105041;1260;98716;-65
2023/05/18 05:42:25;;;;;;;15.90;6.00;;;;;;;7.75;98.91;99314.70;105083;1258;98042;-66
2023/05/18 05:44:52;;;;;;;30.30;9.80;;;;;;;7.79;99.31;99316.87;105025;1259;111840;-66
2023/05/18 05:47:20;;;;;;;18.40;7.90;;;;;;;7.80;98.61;99316.60;104988;1257;97909;-66
2023/05/18 05:49:47;;;;;;;22.90;8.40;;;;;;;7.79;98.56;99320.53;105113;1261;97980;-66
2023/05/18 05:52:14;;;;;;;49.40;13.50;;;;;;;7.83;98.53;99319.75;105101;1254;98323;-66
2023/05/18 05:54:41;;;;;;;48.90;19.80;;;;;;;7.92;98.69;99321.36;105055;1269;97884;-67
2023/05/18 05:57:08;;;;;;;22.10;10.40;;;;;;;7.98;98.68;99318.59;104868;1276;98693;-70
2023/05/18 05:59:35;;;;;;;15.50;4.80;;;;;;;8.06;98.39;99320.74;105049;1260;97906;-68
2023/05/18 06:02:03;;;;;;;12.20;6.00;;;;;;;8.09;96.88;99319.09;105068;1269;97926;-66
2023/05/18 06:04:30;;;;;;;22.70;8.60;;;;;;;8.11;96.71;99321.15;105134;1257;99195;-67
2023/05/18 06:06:57;;;;;;;53.10;17.60;;;;;;;8.12;96.28;99319.02;105093;1261;97982;-66
2023/05/18 06:09:25;;;;;;;20.80;9.00;;;;;;;8.22;97.51;99321.65;105104;1254;97944;-65
2023/05/18 06:11:52;;;;;;;23.00;8.10;;;;;;;8.30;96.04;99321.70;105154;1256;97892;-65
2023/05/18 06:14:20;;;;;;;8.80;3.20;;;;;;;8.32;95.05;99322.45;105133;1257;97987;-66
2023/05/18 06:16:47;;;;;;;19.60;6.40;;;;;;;8.29;94.27;99330.39;105160;1260;97925;-65
2023/05/18 06:19:14;;;;;;;24.00;8.50;;;;;;;8.31;94.48;99327.70;105064;1254;97918;-66
2023/05/18 06:21:41;;;;;;;36.20;9.90;;;;;;;8.30;94.04;99327.94;105199;1275;99218;-65
2023/05/18 06:24:08;;;;;;;16.90;6.00;;;;;;;8.32;93.76;99328.80;104982;1264;108198;-66
2023/05/18 06:26:35;;;;;;;15.10;5.60;;;;;;;8.34;92.90;99332.83;104990;1257;98842;-66
2023/05/18 06:29:15;;;;;;;29.80;8.30;;;;;;;8.36;92.41;99336.27;105173;1256;100421;-66
2023/05/18 06:31:42;;;;;;;8.30;3.30;;;;;;;8.41;93.04;99337.54;105049;1258;97909;-65
2023/05/18 06:34:09;;;;;;;16.40;4.30;;;;;;;8.41;90.20;99334.00;105022;1258;99285;-65
2023/05/18 06:36:37;;;;;;;11.30;4.30;;;;;;;8.42;91.21;99335.63;104822;1256;391714;-67
2023/05/18 06:39:05;;;;;;;13.00;4.80;;;;;;;8.45;91.51;99339.21;105133;1257;97997;-65
2023/05/18 06:41:33;;;;;;;14.30;5.30;;;;;;;8.49;91.28;99340.88;105095;1258;99444;-67
2023/05/18 06:44:01;;;;;;;7.30;3.30;;;;;;;8.55;90.98;99344.80;105106;1256;112173;-65
2023/05/18 06:46:28;;;;;;;9.80;3.40;;;;;;;8.52;89.84;99343.45;105095;1257;99192;-65
2023/05/18 06:48:55;;;;;;;11.80;4.20;;;;;;;8.50;90.11;99345.30;105005;1260;98518;-66
2023/05/18 06:51:22;;;;;;;9.50;3.50;;;;;;;8.52;89.46;99346.44;105128;1260;97993;-66
2023/05/18 06:53:49;;;;;;;8.50;3.90;;;;;;;8.52;89.70;99342.28;105035;1260;98322;-66
2023/05/18 06:56:17;;;;;;;10.80;5.20;;;;;;;8.55;89.78;99340.11;105336;1260;97886;-66
2023/05/18 06:58:45;;;;;;;15.20;6.70;;;;;;;8.57;89.83;99344.89;105093;1260;99186;-66
2023/05/18 07:01:12;;;;;;;12.20;3.20;;;;;;;8.61;89.65;99347.73;105109;1270;97909;-65
2023/05/18 07:03:39;;;;;;;17.10;6.20;;;;;;;8.65;89.33;99346.10;105081;1268;97992;-65
2023/05/18 07:06:07;;;;;;;15.80;5.60;;;;;;;8.70;88.81;99347.94;105124;1256;99205;-66
2023/05/18 07:08:37;;;;;;;9.70;3.20;;;;;;;8.72;88.99;99348.52;105072;1257;98080;-65
2023/05/18 07:11:05;;;;;;;10.00;4.30;;;;;;;8.77;89.22;99351.98;104851;1261;98377;-65
2023/05/18 07:13:33;;;;;;;10.20;4.00;;;;;;;8.84;89.50;99349.41;104841;1263;107760;-66
2023/05/18 07:16:00;;;;;;;8.70;4.00;;;;;;;8.91;88.66;99355.98;104886;1269;98183;-65
2023/05/18 07:18:27;;;;;;;14.50;5.00;;;;;;;8.97;87.85;99360.09;105102;1267;97902;-68
2023/05/18 07:20:54;;;;;;;10.10;4.60;;;;;;;9.05;87.65;99361.61;104952;1269;99332;-67
2023/05/18 07:23:22;;;;;;;6.10;2.90;;;;;;;9.09;85.42;99364.58;105098;1260;99192;-65
2023/05/18 07:25:49;;;;;;;7.60;3.10;;;;;;;9.08;84.51;99365.67;105134;1260;98431;-64
2023/05/18 07:28:16;;;;;;;6.50;2.30;;;;;;;9.10;84.05;99368.13;105126;1260;97900;-64
2023/05/18 07:30:43;;;;;;;11.20;3.70;;;;;;;9.07;83.95;99373.50;105065;1259;98533;-64
2023/05/18 07:33:10;;;;;;;7.80;3.20;;;;;;;9.12;84.01;99371.88;105050;1260;97915;-65
2023/05/18 07:35:38;;;;;;;12.20;5.20;;;;;;;9.13;83.27;99371.48;105093;1260;97970;-64
2023/05/18 07:38:05;;;;;;;17.20;6.20;;;;;;;9.16;83.73;99377.09;105121;1255;97908;-64
2023/05/18 07:40:32;;;;;;;9.60;4.40;;;;;;;9.22;83.83;99374.75;104931;1270;98002;-65
2023/05/18 07:43:00;;;;;;;12.70;4.80;;;;;;;9.23;82.84;99375.95;105002;1268;99214;-64
2023/05/18 07:45:27;;;;;;;11.20;4.90;;;;;;;9.30;84.20;99374.70;105079;1264;97893;-65
2023/05/18 07:47:55;;;;;;;9.30;4.00;;;;;;;9.42;83.16;99374.69;105163;1257;97994;-65
2023/05/18 07:50:22;;;;;;;8.40;4.10;;;;;;;9.48;82.81;99374.57;104968;1260;98006;-64
2023/05/18 07:52:49;;;;;;;7.40;3.70;;;;;;;9.61;83.10;99375.10;105088;1258;98591;-65
2023/05/18 07:55:17;;;;;;;9.40;4.30;;;;;;;9.72;81.27;99376.36;105082;1254;98084;-65
2023/05/18 07:57:44;;;;;;;7.50;3.40;;;;;;;9.73;80.75;99372.24;105113;1269;99190;-65
2023/05/18 08:00:12;;;;;;;11.70;3.90;;;;;;;9.75;81.04;99369.91;105110;1260;99199;-65
2023/05/18 08:02:41;;;;;;;9.60;4.50;;;;;;;9.77;80.33;99366.67;105154;1276;97838;-65
2023/05/18 08:05:10;;;;;;;13.10;5.50;;;;;;;9.79;80.93;99369.39;105178;1267;97906;-65
2023/05/18 08:07:37;;;;;;;10.20;5.20;;;;;;;9.87;80.29;99373.40;105132;1260;98524;-65
2023/05/18 08:10:05;;;;;;;7.70;4.30;;;;;;;9.98;81.37;99373.93;105132;1254;97901;-65
2023/05/18 08:12:32;;;;;;;9.90;4.60;;;;;;;10.20;80.80;99374.48;105009;1262;98909;-65
2023/05/18 08:15:00;;;;;;;12.40;4.40;;;;;;;10.39;80.53;99379.66;105154;1268;99214;-65
2023/05/18 08:17:27;;;;;;;11.50;3.90;;;;;;;10.55;80.12;99384.86;105107;1254;98011;-65
2023/05/18 08:19:54;;;;;;;9.20;4.70;;;;;;;10.77;80.05;99385.53;105152;1258;98052;-64
2023/05/18 08:22:21;;;;;;;5.30;2.90;;;;;;;10.95;79.15;99382.14;104987;1259;98871;-64
2023/05/18 08:24:48;;;;;;;9.40;4.60;;;;;;;10.92;77.52;99383.39;105161;1256;98038;-65
2023/05/18 08:27:15;;;;;;;8.90;3.30;;;;;;;10.97;78.28;99379.52;105127;1267;97902;-65
2023/05/18 08:29:42;;;;;;;9.60;4.30;;;;;;;11.12;76.80;99379.94;105117;1260;97969;-65
2023/05/18 08:32:10;;;;;;;10.30;3.80;;;;;;;11.10;75.64;99381.50;105173;1269;97908;-65
2023/05/18 08:34:37;;;;;;;5.40;2.80;;;;;;;11.23;75.19;99384.98;105150;1260;99169;-66
2023/05/18 08:37:04;;;;;;;9.70;3.90;;;;;;;11.31;72.94;99382.58;105165;1259;98575;-65
2023/05/18 08:39:31;;;;;;;6.20;2.70;;;;;;;11.22;72.42;99384.17;104986;1260;97959;-69
2023/05/18 08:42:27;;;;;;;10.40;3.30;;;;;;;11.21;73.31;99386.38;105070;1257;97880;-64
2023/05/18 08:45:12;;;;;;;5.30;2.70;;;;;;;11.26;71.87;99387.17;105141;1260;97893;-66
2023/05/18 08:47:39;;;;;;;6.20;3.40;;;;;;;11.10;71.52;99390.73;105167;1260;111827;-65
2023/05/18 08:50:12;;;;;;;8.50;3.20;;;;;;;11.11;71.92;99390.38;105217;1254;99114;-65
2023/05/18 08:52:47;;;;;;;3.90;2.10;;;;;;;11.13;71.89;99389.25;104880;1265;108298;-64
2023/05/18 08:55:16;;;;;;;6.10;2.70;;;;;;;11.08;70.68;99391.57;104940;1263;98084;-64
2023/05/18 08:57:49;;;;;;;6.10;3.30;;;;;;;10.89;70.92;99389.13;105125;1256;97945;-64
2023/05/18 09:00:17;;;;;;;8.80;3.20;;;;;;;10.86;72.17;99391.97;105088;1260;112476;-64
2023/05/18 09:02:46;;;;;;;10.30;3.60;;;;;;;10.86;72.39;99388.03;105045;1254;99142;-64
2023/05/18 09:05:15;;;;;;;8.90;3.40;;;;;;;10.97;72.75;99388.73;105180;1258;108130;-64
2023/05/18 09:07:43;;;;;;;8.80;3.60;;;;;;;10.95;72.00;99391.34;105206;1268;97891;-65
2023/05/18 09:10:12;;;;;;;8.70;3.80;;;;;;;10.96;71.74;99389.85;105062;1254;98310;-65
2023/05/18 09:12:42;;;;;;;9.10;3.20;;;;;;;10.97;73.33;99391.42;105114;1254;112315;-65
2023/05/18 09:15:10;;;;;;;6.80;3.30;;;;;;;10.94;72.47;99394.33;105150;1253;99254;-67
2023/05/18 09:17:37;;;;;;;5.70;3.00;;;;;;;10.99;73.93;99397.04;104695;1262;107197;-65
2023/05/18 09:20:06;;;;;;;6.40;2.40;;;;;;;11.11;73.39;99396.64;105049;1257;97914;-64
2023/05/18 09:22:40;;;;;;;8.90;4.00;;;;;;;10.94;71.62;99393.28;104891;1259;98472;-65
2023/05/18 09:25:09;;;;;;;6.70;3.20;;;;;;;10.77;73.24;99401.70;104943;1263;113056;-65
2023/05/18 09:27:37;;;;;;;7.50;3.70;;;;;;;10.77;73.56;99400.92;104937;1260;99211;-65
2023/05/18 09:30:10;;;;;;;10.30;4.40;;;;;;;10.83;73.94;99404.19;104799;1271;105963;-65
2023/05/18 09:32:38;;;;;;;7.80;3.90;;;;;;;10.87;73.01;99407.98;105100;1263;99223;-65
2023/05/18 09:35:07;;;;;;;8.70;4.20;;;;;;;10.74;72.19;99409.25;105088;1254;98138;-65
2023/05/18 09:37:35;;;;;;;8.40;3.20;;;;;;;10.62;72.99;99407.02;104850;1262;111246;-65
2023/05/18 09:40:07;;;;;;;6.80;3.80;;;;;;;10.53;72.97;99405.43;105042;1259;99086;-65
2023/05/18 09:42:42;;;;;;;10.50;5.20;;;;;;;10.45;73.33;99406.63;105051;1260;106672;-65
2023/05/18 09:45:25;;;;;;;8.50;4.40;;;;;;;10.34;73.16;99407.68;105069;1260;98009;-65
2023/05/18 09:47:53;;;;;;;9.10;3.70;;;;;;;10.30;73.65;99409.31;104860;1263;98808;-65
2023/05/18 09:50:22;;;;;;;9.40;4.70;;;;;;;10.33;73.88;99407.48;104599;1262;112229;-65
2023/05/18 09:52:49;;;;;;;7.60;3.90;;;;;;;10.32;73.56;99406.34;104985;1259;99016;-65
2023/05/18 09:55:19;;;;;;;6.40;3.90;;;;;;;10.27;72.93;99404.52;104934;1258;109822;-64
2023/05/18 09:57:48;;;;;;;8.50;3.60;;;;;;;10.21;72.09;99407.79;104975;1260;97965;-65
2023/05/18 10:00:18;;;;;;;10.80;3.80;;;;;;;10.08;71.77;99406.95;105131;1259;97931;-65
2023/05/18 10:02:47;;;;;;;9.40;4.90;;;;;;;10.01;72.27;99406.14;104812;1263;109790;-64
2023/05/18 10:05:23;;;;;;;8.50;4.40;;;;;;;10.04;72.60;99408.09;104851;1262;99207;-66
2023/05/18 10:07:51;;;;;;;12.20;4.50;;;;;;;10.05;72.10;99408.06;105032;1263;107805;-63
2023/05/18 10:10:20;;;;;;;5.60;2.90;;;;;;;10.06;72.24;99404.89;105151;1267;98709;-63
2023/05/18 10:12:51;;;;;;;6.70;3.30;;;;;;;10.03;71.41;99411.13;105215;1254;98539;-63
2023/05/18 10:15:20;;;;;;;;;;;;;;;10.00;70.41;99405.55;105190;1261;111879;-63
2023/05/18 10:17:49;;;;;;;10.10;4.90;;;;;;;9.99;70.96;99407.60;105041;1263;99183;-63
2023/05/18 10:20:19;;;;;;;8.70;4.00;;;;;;;10.01;71.43;99406.98;105097;1254;108572;-64
2023/05/18 10:22:47;;;;;;;6.90;3.70;;;;;;;10.02;71.17;99413.48;105226;1260;99240;-64
2023/05/18 10:25:22;;;;;;;9.90;4.60;;;;;;;9.98;71.26;99407.35;105141;1257;99081;-64
2023/05/18 10:27:54;;;;;;;11.30;4.80;;;;;;;9.94;71.03;99405.30;105150;1260;111836;-64
2023/05/18 10:30:22;;;;;;;9.20;4.50;;;;;;;9.95;71.47;99405.34;105072;1259;98883;-64
2023/05/18 10:32:51;;;;;;;9.00;4.60;;;;;;;9.99;69.92;99402.73;105040;1263;107715;-64
2023/05/18 10:35:20;;;;;;;6.90;3.10;;;;;;;9.99;70.30;99403.82;105141;1260;97900;-64
2023/05/18 10:37:52;;;;;;;9.20;4.50;;;;;;;9.96;70.55;99401.89;105100;1256;99113;-64
2023/05/18 10:40:20;;;;;;;17.90;10.60;;;;;;;10.01;69.55;99405.11;105221;1258;110898;-64
2023/05/18 10:42:49;;;;;;;7.60;3.50;;;;;;;10.01;69.30;99404.83;105007;1261;99251;-64
2023/05/18 10:45:17;;;;;;;9.40;3.90;;;;;;;10.02;68.99;99404.39;105118;1259;108360;-63
2023/05/18 10:47:45;;;;;;;12.60;4.90;;;;;;;10.04;69.66;99402.55;105160;1259;98010;-64
2023/05/18 10:50:14;;;;;;;7.30;3.30;;;;;;;10.09;69.45;99405.69;105356;1259;97899;-64
2023/05/18 10:52:44;;;;;;;6.30;3.20;;;;;;;10.01;67.47;99405.16;105001;1266;112211;-64
2023/05/18 10:55:12;;;;;;;12.40;4.30;;;;;;;9.99;68.64;99405.63;104978;1258;98649;-64
2023/05/18 10:57:45;;;;;;;6.00;2.70;;;;;;;10.07;68.78;99406.97;105004;1264;108772;-64
2023/05/18 11:00:13;;;;;;;5.60;2.80;;;;;;;10.11;68.85;99406.54;104735;1263;99080;-64
2023/05/18 11:02:41;;;;;;;10.20;4.90;;;;;;;10.13;68.87;99408.31;104918;1259;97915;-64
2023/05/18 11:05:25;;;;;;;7.00;3.20;;;;;;;10.18;69.65;99410.34;104692;1261;111902;-64
2023/05/18 11:08:00;;;;;;;9.80;3.80;;;;;;;10.29;69.28;99405.94;104777;1263;98821;-64
2023/05/18 11:10:45;;;;;;;12.40;2.90;;;;;;;10.29;68.82;99409.98;104704;1262;107337;-64
2023/05/18 11:13:14;;;;;;;5.30;2.70;;;;;;;10.31;68.14;99412.10;104968;1260;98028;-64
2023/05/18 11:15:54;;;;;;;7.70;3.70;;;;;;;10.32;69.00;99413.02;105175;1267;98173;-64
2023/05/18 11:18:39;;;;;;;6.90;2.70;;;;;;;10.42;67.98;99413.00;105086;1262;112309;-64
2023/05/18 11:21:34;;;;;;;15.30;4.90;;;;;;;10.39;67.49;99412.77;104986;1260;99138;-64
2023/05/18 11:24:22;;;;;;;7.90;3.10;;;;;;;10.29;67.28;99411.84;104882;1267;109488;-66
2023/05/18 11:26:57;;;;;;;3.90;1.80;;;;;;;10.25;68.53;99409.77;104992;1267;97953;-66
2023/05/18 11:29:39;;;;;;;9.10;3.50;;;;;;;10.23;68.90;99414.88;105077;1260;98432;-64
2023/05/18 11:32:22;;;;;;;5.90;2.00;;;;;;;10.25;69.97;99410.20;104873;1273;110913;-65
2023/05/18 11:34:57;;;;;;;3.50;2.10;;;;;;;10.23;69.49;99414.66;105196;1260;99210;-63
2023/05/18 11:37:37;;;;;;;5.10;2.00;;;;;;;10.15;70.46;99420.40;105210;1260;108337;-64
2023/05/18 11:40:08;;;;;;;6.80;2.90;;;;;;;10.10;71.09;99424.63;104979;1262;98066;-64
2023/05/18 11:42:40;;;;;;;5.30;2.50;;;;;;;10.10;72.36;99426.77;105152;1257;99650;-64
2023/05/18 11:45:11;;;;;;;8.00;3.00;;;;;;;10.09;71.85;99432.41;105304;1259;112202;-64
2023/05/18 11:47:39;;;;;;;6.70;2.80;;;;;;;10.03;71.92;99429.46;105031;1263;98350;-63
2023/05/18 11:50:10;;;;;;;6.90;2.70;;;;;;;10.00;73.45;99432.18;105240;1260;108586;-64
2023/05/18 11:52:51;;;;;;;4.90;1.80;;;;;;;9.98;73.66;99431.04;104980;1262;98125;-64
2023/05/18 11:55:20;;;;;;;3.80;1.70;;;;;;;9.90;73.08;99433.27;105176;1267;97907;-64
2023/05/18 11:57:53;;;;;;;2.20;1.80;;;;;;;9.85;73.89;99432.95;105205;1260;111892;-63
2023/05/18 12:00:20;;;;;;;6.50;2.10;;;;;;;9.86;74.51;99434.13;105163;1259;97910;-63
2023/05/18 12:02:48;;;;;;;5.20;2.20;;;;;;;9.86;74.93;99435.77;105201;1261;108766;-63
2023/05/18 12:05:16;;;;;;;8.30;3.30;;;;;;;9.95;74.92;99440.49;104984;1271;98030;-64
2023/05/18 12:07:51;;;;;;;5.90;2.40;;;;;;;10.04;75.29;99443.91;105014;1267;99105;-64
2023/05/18 12:10:20;;;;;;;8.40;1.70;;;;;;;10.09;75.10;99447.69;104866;1262;110112;-65
2023/05/18 12:12:51;;;;;;;3.30;1.70;;;;;;;10.00;75.24;99449.59;105042;1267;99250;-65
2023/05/18 12:15:23;;;;;;;5.60;2.40;;;;;;;9.96;76.45;99447.54;105160;1257;107666;-65
2023/05/18 12:17:50;;;;;;;14.20;4.00;;;;;;;10.00;77.45;99445.65;105002;1263;97976;-65
2023/05/18 12:20:20;;;;;;;6.90;2.80;;;;;;;10.03;77.41;99448.90;105144;1260;98402;-64
2023/05/18 12:22:51;;;;;;;7.90;4.00;;;;;;;10.07;78.34;99448.70;105195;1264;112423;-65
2023/05/18 12:25:22;;;;;;;9.10;3.60;;;;;;;10.16;78.62;99448.48;105218;1268;99723;-65
2023/05/18 12:27:51;;;;;;;5.60;3.60;;;;;;;10.23;79.35;99445.94;105205;1267;108536;-65
2023/05/18 12:30:20;;;;;;;4.60;2.40;;;;;;;10.22;78.88;99453.02;105215;1267;97982;-65
2023/05/18 12:32:58;;;;;;;7.80;2.70;;;;;;;10.19;79.43;99450.38;105158;1257;98156;-65
2023/05/18 12:35:28;;;;;;;6.80;2.90;;;;;;;10.11;80.37;99451.94;105112;1260;112224;-65
2023/05/18 12:37:59;;;;;;;7.40;2.60;;;;;;;10.08;81.04;99448.25;105204;1266;99376;-65
2023/05/18 12:40:36;;;;;;;6.50;2.80;;;;;;;10.00;80.42;99448.11;105370;1268;108708;-64
2023/05/18 12:43:03;;;;;;;8.70;3.40;;;;;;;9.99;81.70;99448.45;104695;1262;99093;-66
2023/05/18 12:45:32;;;;;;;4.90;2.60;;;;;;;10.07;80.87;99446.95;105024;1257;97944;-64
2023/05/18 12:48:05;;;;;;;11.60;7.10;;;;;;;9.96;80.00;99445.23;104852;1263;111312;-66